Time;durP1;ratioP1;P1;durP2;ratioP2;P2;SDS_P1;SDS_P2;PMS_P1;PMS_P2;Temp;Humidity;BMP_temperature;BMP_pressure;BME280_temperature;BME280_humidity;BME280_pressure;Samples;Min_cycle;Max_cycle;Signal;HPM_P1;HPM_P2
2024/04/04 00:01:13;;;;;;;6.35;1.40;;;;;;;9.39;100.00;69441.81;5076482;28;20060;-46
2024/04/04 00:03:39;;;;;;;6.63;1.50;;;;;;;9.37;100.00;69436.31;5093667;28;20420;-45
2024/04/04 00:06:06;;;;;;;9.88;2.13;;;;;;;9.35;100.00;69434.56;5100392;28;20047;-50
2024/04/04 00:08:33;;;;;;;9.73;1.65;;;;;;;9.33;100.00;69432.22;5099268;28;20044;-50
2024/04/04 00:11:08;;;;;;;7.10;1.40;;;;;;;9.25;100.00;69420.31;5093327;28;20054;-45
2024/04/04 00:13:37;;;;;;;6.40;1.67;;;;;;;9.18;100.00;69412.16;5086519;28;20501;-45
2024/04/04 00:16:06;;;;;;;8.52;1.90;;;;;;;9.12;100.00;69406.31;5067255;28;20048;-45
2024/04/04 00:18:32;;;;;;;10.38;1.50;;;;;;;9.08;100.00;69401.66;5093432;28;20556;-47
2024/04/04 00:21:00;;;;;;;5.93;1.25;;;;;;;9.06;100.00;69396.72;5093277;28;20039;-45
2024/04/04 00:23:26;;;;;;;7.15;1.42;;;;;;;9.01;100.00;69390.28;5093191;28;20131;-47
2024/04/04 00:25:53;;;;;;;10.80;1.70;;;;;;;9.06;100.00;69398.72;5093148;28;20118;-48
2024/04/04 00:28:20;;;;;;;8.60;1.48;;;;;;;8.96;100.00;69390.25;5093158;28;20040;-47
2024/04/04 00:30:47;;;;;;;11.15;1.50;;;;;;;8.88;100.00;69381.50;5093183;28;20079;-46
2024/04/04 00:33:15;;;;;;;6.32;1.30;;;;;;;8.81;100.00;69370.75;5072840;28;20499;-48
2024/04/04 00:35:42;;;;;;;7.90;1.70;;;;;;;8.77;100.00;69368.69;5079876;28;20047;-46
2024/04/04 00:38:08;;;;;;;9.13;1.90;;;;;;;8.75;100.00;69366.34;5075914;28;20455;-47
2024/04/04 00:40:36;;;;;;;5.93;1.20;;;;;;;8.68;100.00;69353.00;5092761;28;20540;-47
2024/04/04 00:43:03;;;;;;;9.80;1.80;;;;;;;8.65;100.00;69352.69;5092966;28;20428;-47
2024/04/04 00:45:33;;;;;;;9.48;1.63;;;;;;;8.61;100.00;69348.59;5093108;28;20123;-47
2024/04/04 00:48:02;;;;;;;10.30;1.35;;;;;;;8.58;100.00;69344.53;5090950;28;20036;-46
2024/04/04 00:50:31;;;;;;;7.25;1.52;;;;;;;8.53;100.00;69336.69;5089310;28;20511;-45
2024/04/04 00:52:58;;;;;;;5.32;1.40;;;;;;;8.44;100.00;69331.41;5074896;28;20051;-46
2024/04/04 00:55:25;;;;;;;7.57;1.63;;;;;;;8.44;100.00;69331.41;5092742;28;20059;-47
2024/04/04 00:57:52;;;;;;;5.97;1.23;;;;;;;8.36;100.00;69322.06;5091649;28;20518;-46
2024/04/04 01:00:23;;;;;;;10.48;1.65;;;;;;;8.32;100.00;69320.00;5090158;28;20044;-50
2024/04/04 01:02:50;;;;;;;6.90;1.42;;;;;;;8.30;100.00;69313.03;5091073;28;20664;-47
2024/04/04 01:05:18;;;;;;;8.85;1.70;;;;;;;8.28;100.00;69313.91;5075433;28;20089;-46
2024/04/04 01:07:46;;;;;;;8.98;1.52;;;;;;;8.24;100.00;69306.06;5091368;28;20040;-47
2024/04/04 01:10:13;;;;;;;7.07;1.58;;;;;;;8.22;100.00;69301.13;5092279;28;20047;-49
2024/04/04 01:12:39;;;;;;;7.68;1.70;;;;;;;8.18;100.00;69299.66;5075324;28;20056;-47
2024/04/04 01:15:07;;;;;;;10.63;2.00;;;;;;;8.17;100.00;69303.69;5092445;28;20035;-49
2024/04/04 01:17:34;;;;;;;7.97;1.90;;;;;;;8.16;100.00;69301.94;5092239;28;20491;-51
2024/04/04 01:20:01;;;;;;;8.18;1.90;;;;;;;8.14;100.00;69300.22;5075286;28;20044;-50
2024/04/04 01:22:27;;;;;;;10.23;2.03;;;;;;;8.16;100.00;69297.31;5092003;28;20091;-47
2024/04/04 01:24:56;;;;;;;13.70;2.15;;;;;;;8.16;100.00;69296.75;5075100;28;20044;-46
2024/04/04 01:27:22;;;;;;;9.90;1.60;;;;;;;8.20;100.00;69301.97;5091601;28;20414;-49
2024/04/04 01:29:51;;;;;;;9.20;1.77;;;;;;;8.22;100.00;69306.31;5091835;28;20047;-47
2024/04/04 01:32:17;;;;;;;7.95;1.60;;;;;;;8.23;100.00;69305.47;5089138;28;20449;-51
2024/04/04 01:34:44;;;;;;;9.73;1.77;;;;;;;8.26;100.00;69308.97;5088208;28;20090;-50
2024/04/04 01:37:11;;;;;;;7.45;1.45;;;;;;;8.28;100.00;69311.31;5091468;28;20048;-47
2024/04/04 01:39:38;;;;;;;9.88;1.77;;;;;;;8.28;100.00;69311.31;5074367;28;20117;-47
2024/04/04 01:42:06;;;;;;;9.20;1.55;;;;;;;8.30;100.00;69318.25;5091697;28;20052;-46
2024/04/04 01:44:36;;;;;;;9.88;1.67;;;;;;;8.29;100.00;69309.88;5091603;28;20055;-49
2024/04/04 01:47:02;;;;;;;7.97;2.00;;;;;;;8.23;100.00;69308.06;5091302;28;20048;-50
2024/04/04 01:49:29;;;;;;;9.35;1.60;;;;;;;8.25;100.00;69307.25;5091492;28;20048;-48
2024/04/04 01:51:55;;;;;;;7.85;1.50;;;;;;;8.24;100.00;69306.66;5073761;28;20483;-48
2024/04/04 01:54:22;;;;;;;15.63;2.28;;;;;;;8.25;100.00;69307.81;5087763;28;20171;-48
2024/04/04 01:56:48;;;;;;;8.70;1.67;;;;;;;8.23;100.00;69304.91;5089778;28;20082;-50
2024/04/04 01:59:17;;;;;;;8.65;1.67;;;;;;;8.24;100.00;69309.25;5074328;28;20090;-50
2024/04/04 02:01:43;;;;;;;11.88;1.80;;;;;;;8.27;100.00;69310.13;5091396;28;20051;-52
2024/04/04 02:04:10;;;;;;;8.05;1.55;;;;;;;8.27;100.00;69312.16;5091339;28;20486;-50
2024/04/04 02:06:36;;;;;;;8.77;2.22;;;;;;;8.29;100.00;69312.47;5090261;28;20040;-48
2024/04/04 02:09:04;;;;;;;10.00;1.92;;;;;;;8.31;100.00;69313.66;5091325;28;20510;-48
2024/04/04 02:11:30;;;;;;;7.95;2.03;;;;;;;8.31;100.00;69314.22;5091068;28;20047;-49
2024/04/04 02:13:57;;;;;;;11.15;1.85;;;;;;;8.31;100.00;69316.25;5090552;28;20044;-51
2024/04/04 02:16:24;;;;;;;8.23;1.40;;;;;;;8.29;100.00;69315.06;5086103;28;20055;-51
2024/04/04 02:18:54;;;;;;;10.25;1.48;;;;;;;8.29;100.00;69315.06;5078594;28;20032;-48
2024/04/04 02:21:21;;;;;;;8.45;1.77;;;;;;;8.33;100.00;69315.97;5089588;28;20050;-48
2024/04/04 02:23:51;;;;;;;5.88;1.33;;;;;;;8.33;100.00;69316.56;5089371;28;20028;-49
2024/04/04 02:26:17;;;;;;;9.90;2.00;;;;;;;8.32;100.00;69312.19;5086227;28;20047;-50
2024/04/04 02:28:44;;;;;;;9.25;1.50;;;;;;;8.37;100.00;69321.22;5089091;28;20044;-48
2024/04/04 02:31:10;;;;;;;8.88;1.48;;;;;;;8.36;100.00;69322.66;5089813;28;20119;-48
2024/04/04 02:33:38;;;;;;;9.65;1.58;;;;;;;8.36;100.00;69322.06;5072572;28;20044;-49
2024/04/04 02:36:05;;;;;;;13.60;1.85;;;;;;;8.36;100.00;69320.03;5088783;28;20075;-48
2024/04/04 02:38:32;;;;;;;9.93;2.47;;;;;;;8.36;100.00;69322.06;5089079;28;20427;-47
2024/04/04 02:40:58;;;;;;;7.78;1.98;;;;;;;8.33;100.00;69318.56;5088748;28;20093;-48
2024/04/04 02:43:25;;;;;;;10.60;2.30;;;;;;;8.32;100.00;69312.19;5078581;28;20538;-47
2024/04/04 02:45:58;;;;;;;16.58;2.42;;;;;;;8.31;100.00;69313.66;5069447;28;20518;-48
2024/04/04 02:48:26;;;;;;;8.30;2.03;;;;;;;8.32;100.00;69314.78;5071114;28;20116;-48
2024/04/04 02:50:57;;;;;;;7.90;1.83;;;;;;;8.27;100.00;69312.72;5079790;28;20112;-48
2024/04/04 02:53:25;;;;;;;8.33;2.17;;;;;;;8.29;100.00;69314.50;5069606;28;20498;-47
2024/04/04 02:55:55;;;;;;;10.25;1.92;;;;;;;8.34;100.00;69319.72;5084294;28;20048;-49
2024/04/04 02:58:23;;;;;;;7.82;1.73;;;;;;;8.33;100.00;69318.56;5088282;28;20565;-51
2024/04/04 03:00:49;;;;;;;6.38;2.10;;;;;;;8.38;100.00;69324.97;5088667;28;20491;-48
2024/04/04 03:03:16;;;;;;;7.88;2.20;;;;;;;8.36;100.00;69320.03;5099292;28;20075;-49
2024/04/04 03:05:42;;;;;;;10.90;2.72;;;;;;;8.37;100.00;69320.63;5072216;28;20051;-51
2024/04/04 03:08:11;;;;;;;10.25;3.35;;;;;;;8.38;100.00;69319.19;5095501;28;20100;-50
2024/04/04 03:10:37;;;;;;;11.48;2.95;;;;;;;8.35;100.00;69313.09;5088550;28;20043;-51
2024/04/04 03:13:05;;;;;;;8.63;2.33;;;;;;;8.35;100.00;69323.50;5085795;28;20185;-49
2024/04/04 03:15:31;;;;;;;9.35;3.10;;;;;;;8.34;100.00;69314.53;5087806;28;20445;-51
2024/04/04 03:17:59;;;;;;;11.48;2.50;;;;;;;8.32;100.00;69314.78;5090132;28;20051;-47
2024/04/04 03:20:25;;;;;;;10.18;2.40;;;;;;;8.32;100.00;69320.00;5088158;28;20044;-48
2024/04/04 03:22:52;;;;;;;11.00;2.63;;;;;;;8.39;100.00;69325.56;5085905;28;20101;-48
2024/04/04 03:25:19;;;;;;;9.40;2.60;;;;;;;8.38;100.00;69321.78;5089452;28;20055;-50
2024/04/04 03:27:46;;;;;;;9.63;2.47;;;;;;;8.31;100.00;69316.81;5089930;28;20039;-49
2024/04/04 03:30:12;;;;;;;8.60;2.70;;;;;;;8.33;100.00;69319.16;5092682;28;20539;-47
2024/04/04 03:32:40;;;;;;;7.43;2.40;;;;;;;8.37;100.00;69321.22;5094263;28;20083;-47
2024/04/04 03:35:06;;;;;;;7.40;2.40;;;;;;;8.33;100.00;69318.56;5094119;28;20032;-47
2024/04/04 03:37:33;;;;;;;7.82;2.20;;;;;;;8.29;100.00;69317.69;5076971;28;20052;-49
2024/04/04 03:40:01;;;;;;;8.05;1.92;;;;;;;8.31;100.00;69314.22;5093571;28;20051;-48
2024/04/04 03:42:29;;;;;;;5.68;1.85;;;;;;;8.37;100.00;69323.81;5093675;28;20048;-47
2024/04/04 03:44:57;;;;;;;8.52;2.05;;;;;;;8.39;100.00;69323.53;5093782;28;20086;-49
2024/04/04 03:47:23;;;;;;;13.57;1.88;;;;;;;8.39;100.00;69325.56;5076649;28;20066;-48
2024/04/04 03:49:50;;;;;;;7.85;2.55;;;;;;;8.36;100.00;69320.03;5093718;28;20101;-47
2024/04/04 03:52:16;;;;;;;5.95;1.85;;;;;;;8.37;100.00;69321.22;5093663;28;20051;-48
2024/04/04 03:54:43;;;;;;;7.30;1.80;;;;;;;8.34;100.00;69317.72;5093621;28;20056;-46
2024/04/04 03:57:12;;;;;;;16.05;2.17;;;;;;;8.33;100.00;69315.97;5077172;28;20126;-46
2024/04/04 03:59:41;;;;;;;10.70;2.30;;;;;;;8.31;100.00;69313.66;5093253;28;20494;-46
2024/04/04 04:02:07;;;;;;;4.40;1.88;;;;;;;8.26;100.00;69308.97;5093799;28;20056;-47
2024/04/04 04:04:34;;;;;;;9.32;2.85;;;;;;;8.25;100.00;69305.22;5093462;28;20070;-47
2024/04/04 04:07:00;;;;;;;11.73;2.55;;;;;;;8.21;100.00;69299.97;5093372;28;20028;-47
2024/04/04 04:09:28;;;;;;;10.55;3.63;;;;;;;8.21;100.00;69305.75;5093406;28;20509;-46
2024/04/04 04:11:54;;;;;;;11.07;4.15;;;;;;;8.23;100.00;69305.47;5093459;28;20486;-49
2024/04/04 04:14:21;;;;;;;11.02;4.00;;;;;;;8.25;100.00;69307.81;5093393;28;20038;-48
2024/04/04 04:16:48;;;;;;;9.63;3.40;;;;;;;8.24;100.00;69309.25;5093189;28;20503;-48
2024/04/04 04:19:16;;;;;;;9.93;3.10;;;;;;;8.28;100.00;69316.50;5093146;28;20048;-46
2024/04/04 04:21:42;;;;;;;9.82;3.58;;;;;;;8.33;100.00;69319.16;5076292;28;20047;-47
2024/04/04 04:24:09;;;;;;;8.93;3.65;;;;;;;8.36;100.00;69324.69;5091774;28;20047;-47
2024/04/04 04:26:35;;;;;;;12.93;3.45;;;;;;;8.40;100.00;69324.13;5090122;28;20056;-52
2024/04/04 04:29:02;;;;;;;12.48;3.90;;;;;;;8.36;100.00;69322.66;5091148;28;20055;-46
2024/04/04 04:31:30;;;;;;;9.50;3.80;;;;;;;8.36;100.00;69320.03;5092385;28;20040;-49
2024/04/04 04:34:00;;;;;;;10.27;4.10;;;;;;;8.46;100.00;69333.72;5092796;28;20177;-51
2024/04/04 04:36:30;;;;;;;8.52;4.00;;;;;;;8.44;100.00;69331.41;5092974;28;20130;-50
2024/04/04 04:38:57;;;;;;;10.32;3.90;;;;;;;8.46;100.00;69334.31;5075912;28;20040;-51
2024/04/04 04:41:23;;;;;;;9.88;4.10;;;;;;;8.51;100.00;69338.97;5091609;28;20032;-51
2024/04/04 04:43:51;;;;;;;8.70;4.40;;;;;;;8.55;100.00;69344.22;5092558;28;20096;-47
2024/04/04 04:46:18;;;;;;;9.70;4.68;;;;;;;8.58;100.00;69344.53;5092855;28;20040;-49
2024/04/04 04:48:44;;;;;;;12.00;4.53;;;;;;;8.62;100.00;69352.38;5092291;28;20377;-49
2024/04/04 04:51:14;;;;;;;8.13;4.28;;;;;;;8.63;100.00;69350.94;5089040;28;20048;-47
2024/04/04 04:53:41;;;;;;;10.70;4.65;;;;;;;8.67;100.00;69354.44;5090133;28;20044;-48
2024/04/04 04:56:08;;;;;;;12.05;5.03;;;;;;;8.71;100.00;69356.50;5091166;28;20085;-52
2024/04/04 04:58:34;;;;;;;13.57;5.07;;;;;;;8.74;100.00;69365.78;5089725;28;20048;-50
2024/04/04 05:01:03;;;;;;;11.73;4.93;;;;;;;8.76;100.00;69362.91;5091403;28;20040;-47
2024/04/04 05:03:29;;;;;;;12.38;5.28;;;;;;;8.81;100.00;69370.75;5075269;28;20048;-47
2024/04/04 05:05:57;;;;;;;11.43;5.45;;;;;;;8.86;100.00;69376.00;5075122;28;20055;-46
2024/04/04 05:08:24;;;;;;;11.50;5.57;;;;;;;8.86;100.00;69376.00;5090630;28;20032;-50
2024/04/04 05:10:52;;;;;;;9.65;4.95;;;;;;;8.86;100.00;69381.81;5088689;28;20093;-50
2024/04/04 05:13:18;;;;;;;12.48;5.38;;;;;;;8.91;100.00;69381.84;5091287;28;20031;-47
2024/04/04 05:15:47;;;;;;;8.82;4.75;;;;;;;8.94;100.00;69380.72;5091918;28;20047;-48
2024/04/04 05:18:13;;;;;;;11.57;4.43;;;;;;;9.00;100.00;69391.72;5088999;28;20058;-49
2024/04/04 05:20:42;;;;;;;11.90;4.85;;;;;;;9.06;100.00;69401.34;5089591;28;20511;-48
2024/04/04 05:23:08;;;;;;;9.30;4.07;;;;;;;9.14;100.00;69410.66;5075114;28;20399;-47
2024/04/04 05:25:36;;;;;;;12.48;4.63;;;;;;;9.17;100.00;69414.16;5089864;28;20855;-47
2024/04/04 05:28:03;;;;;;;8.93;4.47;;;;;;;9.24;100.00;69419.13;5088643;28;20048;-48
2024/04/04 05:30:31;;;;;;;8.52;4.32;;;;;;;9.34;100.00;69430.19;5091385;28;20075;-47
2024/04/04 05:32:59;;;;;;;13.13;5.45;;;;;;;9.38;100.00;69434.88;5074938;28;20372;-47
2024/04/04 05:35:30;;;;;;;9.75;4.28;;;;;;;9.44;100.00;69442.44;5091797;28;20044;-48
2024/04/04 05:37:56;;;;;;;11.52;4.57;;;;;;;9.46;100.00;69444.78;5091792;28;20048;-49
2024/04/04 05:40:24;;;;;;;10.15;3.92;;;;;;;9.52;100.00;69451.19;5074674;28;20101;-47
2024/04/04 05:42:51;;;;;;;11.32;5.15;;;;;;;9.55;100.00;69456.72;5071977;28;20082;-50
2024/04/04 05:45:19;;;;;;;10.30;4.60;;;;;;;9.55;100.00;69454.13;5088927;28;20036;-48
2024/04/04 05:47:46;;;;;;;12.88;4.80;;;;;;;9.58;100.00;69460.22;5090823;28;20456;-48
2024/04/04 05:50:16;;;;;;;11.20;4.93;;;;;;;9.61;100.00;69461.09;5088075;28;20437;-49
2024/04/04 05:52:42;;;;;;;11.23;4.35;;;;;;;9.63;100.00;69461.41;5089870;28;20536;-48
2024/04/04 05:55:11;;;;;;;13.88;4.82;;;;;;;9.66;100.00;69466.94;5088653;28;20036;-47
2024/04/04 05:57:37;;;;;;;12.30;4.63;;;;;;;9.70;100.00;69471.59;5071645;28;20052;-49
2024/04/04 06:00:08;;;;;;;11.55;4.50;;;;;;;9.76;100.00;69475.41;5074093;28;20040;-49
2024/04/04 06:02:34;;;;;;;11.15;4.53;;;;;;;9.80;100.00;69480.06;5091076;28;20039;-48
2024/04/04 06:05:01;;;;;;;12.60;4.70;;;;;;;9.79;100.00;69482.09;5074630;28;20571;-47
2024/04/04 06:07:27;;;;;;;10.98;3.88;;;;;;;9.81;100.00;69483.84;5091027;28;20044;-47
2024/04/04 06:09:54;;;;;;;12.57;4.47;;;;;;;9.82;100.00;69480.38;5087663;28;20050;-49
2024/04/04 06:12:20;;;;;;;10.50;3.97;;;;;;;9.86;100.00;69489.69;5088274;28;20040;-49
2024/04/04 06:14:48;;;;;;;12.55;4.68;;;;;;;9.90;100.00;69493.78;5091151;28;20075;-47
2024/04/04 06:17:16;;;;;;;15.55;5.35;;;;;;;9.92;100.00;69496.09;5090870;28;20070;-47
2024/04/04 06:19:43;;;;;;;11.05;4.30;;;;;;;9.97;100.00;69502.50;5090674;28;20044;-47
2024/04/04 06:22:09;;;;;;;9.45;3.90;;;;;;;10.03;100.00;69508.34;5073834;28;20058;-46
2024/04/04 06:24:36;;;;;;;14.27;4.35;;;;;;;10.03;100.00;69508.34;5090691;28;20044;-48
2024/04/04 06:27:03;;;;;;;12.25;4.68;;;;;;;10.05;100.00;69513.28;5090740;28;20097;-49
2024/04/04 06:29:30;;;;;;;11.82;4.68;;;;;;;10.08;100.00;69517.38;5090752;28;20105;-47
2024/04/04 06:31:57;;;;;;;12.85;4.50;;;;;;;10.12;100.00;69516.25;5088862;28;20040;-48
2024/04/04 06:34:26;;;;;;;11.48;4.40;;;;;;;10.17;100.00;69521.50;5071176;28;20056;-48
2024/04/04 06:36:52;;;;;;;11.40;4.40;;;;;;;10.17;100.00;69524.69;5089114;28;20042;-48
2024/04/04 06:39:19;;;;;;;10.70;4.97;;;;;;;10.22;100.00;69529.94;5087005;28;20046;-55
2024/04/04 06:41:48;;;;;;;12.93;4.82;;;;;;;10.23;100.00;69525.88;5087235;28;20039;-54
2024/04/04 06:44:15;;;;;;;12.32;4.53;;;;;;;10.26;100.00;69534.59;5087553;28;20056;-54
2024/04/04 06:46:41;;;;;;;13.65;4.82;;;;;;;10.27;100.00;69533.75;5086932;28;20048;-51
2024/04/04 06:49:09;;;;;;;12.60;4.47;;;;;;;10.29;100.00;69536.09;5089208;28;20051;-54
2024/04/04 06:51:36;;;;;;;14.55;4.97;;;;;;;10.32;100.00;69544.19;5090095;28;20036;-53
2024/04/04 06:54:04;;;;;;;12.48;4.47;;;;;;;10.33;100.00;69540.16;5089259;28;20044;-53
2024/04/04 06:56:30;;;;;;;13.43;4.40;;;;;;;10.38;100.00;69548.06;5070115;28;20040;-51
2024/04/04 06:59:01;;;;;;;13.18;3.85;;;;;;;10.40;100.00;69545.16;5088318;28;20624;-53
2024/04/04 07:01:29;;;;;;;14.75;3.88;;;;;;;10.40;100.00;69552.97;5073366;28;20414;-53
2024/04/04 07:03:56;;;;;;;12.15;3.97;;;;;;;10.41;100.00;69546.31;5088458;28;20089;-53
2024/04/04 07:06:24;;;;;;;12.63;4.07;;;;;;;10.44;100.00;69558.25;5087831;28;20055;-54
2024/04/04 07:08:54;;;;;;;12.88;3.70;;;;;;;10.44;100.00;69553.03;5077490;28;20055;-53
2024/04/04 07:11:21;;;;;;;9.18;3.53;;;;;;;10.47;100.00;69559.13;5086104;28;20036;-54
2024/04/04 07:13:48;;;;;;;11.43;4.00;;;;;;;10.49;100.00;69561.44;5089991;28;20047;-54
2024/04/04 07:16:14;;;;;;;15.88;3.45;;;;;;;10.51;100.00;69560.59;5090115;28;20411;-53
2024/04/04 07:18:41;;;;;;;9.70;4.00;;;;;;;10.54;100.00;69561.50;5090009;28;20426;-54
2024/04/04 07:21:07;;;;;;;10.23;3.72;;;;;;;10.58;100.00;69565.56;5089091;28;20407;-53
2024/04/04 07:23:34;;;;;;;15.35;4.32;;;;;;;10.60;100.00;69573.13;5081663;28;20141;-53
2024/04/04 07:26:02;;;;;;;10.57;2.97;;;;;;;10.63;100.00;69581.84;5073065;28;20051;-53
2024/04/04 07:28:29;;;;;;;10.35;3.03;;;;;;;10.67;100.00;69585.94;5089945;28;20418;-52
2024/04/04 07:30:55;;;;;;;9.38;3.10;;;;;;;10.67;100.00;69580.72;5087728;28;20056;-54
2024/04/04 07:33:22;;;;;;;9.43;3.63;;;;;;;10.70;100.00;69579.00;5087388;28;20093;-54
2024/04/04 07:35:50;;;;;;;10.68;2.85;;;;;;;10.71;100.00;69582.78;5086713;28;20220;-54
2024/04/04 07:38:17;;;;;;;13.25;2.85;;;;;;;10.73;100.00;69593.53;5069048;28;20052;-54
2024/04/04 07:40:43;;;;;;;9.65;2.75;;;;;;;10.83;100.00;69594.75;5087955;28;20046;-54
2024/04/04 07:43:12;;;;;;;9.93;2.70;;;;;;;10.81;100.00;69592.44;5087882;28;20128;-54
2024/04/04 07:45:38;;;;;;;11.25;2.80;;;;;;;10.82;100.00;69598.22;5086786;28;20383;-54
2024/04/04 07:48:09;;;;;;;7.97;2.97;;;;;;;10.80;100.00;69588.06;5086793;28;20491;-52
2024/04/04 07:50:35;;;;;;;10.57;2.95;;;;;;;10.83;100.00;69591.56;5086266;28;20039;-55
2024/04/04 07:53:03;;;;;;;8.73;2.75;;;;;;;10.84;100.00;69600.56;5085806;28;20048;-54
2024/04/04 07:55:29;;;;;;;7.65;2.55;;;;;;;10.87;100.00;69598.84;5080905;28;20048;-54
2024/04/04 07:57:56;;;;;;;11.85;3.08;;;;;;;10.90;100.00;69601.78;5089425;28;20114;-55
2024/04/04 08:00:25;;;;;;;10.40;2.83;;;;;;;10.92;100.00;69604.09;5088845;28;20071;-54
2024/04/04 08:02:52;;;;;;;6.28;2.60;;;;;;;10.96;100.00;69614.56;5085448;28;20043;-54
2024/04/04 08:05:19;;;;;;;11.13;2.70;;;;;;;10.97;100.00;69610.50;5085524;28;20127;-54
2024/04/04 08:07:46;;;;;;;8.93;2.60;;;;;;;11.01;100.00;69619.81;5069037;28;20554;-53
2024/04/04 08:10:15;;;;;;;7.25;2.53;;;;;;;11.02;100.00;69621.00;5085331;28;20533;-55
2024/04/04 08:12:43;;;;;;;11.95;2.75;;;;;;;11.03;100.00;69619.56;5079991;28;20032;-54
2024/04/04 08:15:12;;;;;;;7.80;2.70;;;;;;;11.06;100.00;69625.09;5086175;28;20040;-55
2024/04/04 08:17:41;;;;;;;9.30;2.30;;;;;;;11.10;100.00;69630.34;5085724;28;20047;-54
2024/04/04 08:20:08;;;;;;;9.68;2.10;;;;;;;11.12;100.00;69629.47;5089111;28;20075;-54
2024/04/04 08:22:35;;;;;;;8.40;2.72;;;;;;;11.14;100.00;69632.41;5090251;28;20437;-54
2024/04/04 08:25:02;;;;;;;9.80;2.22;;;;;;;11.15;100.00;69638.78;5092313;28;20040;-54
2024/04/04 08:27:29;;;;;;;4.93;1.92;;;;;;;11.18;100.00;69635.88;5092182;28;20054;-55
2024/04/04 08:29:55;;;;;;;7.85;2.10;;;;;;;11.21;100.00;69639.97;5073224;28;20097;-55
2024/04/04 08:32:22;;;;;;;7.63;2.10;;;;;;;11.21;100.00;69647.22;5089540;28;20083;-54
2024/04/04 08:34:49;;;;;;;7.75;1.95;;;;;;;11.24;100.00;69646.09;5088415;28;20130;-54
2024/04/04 08:37:17;;;;;;;8.18;2.22;;;;;;;11.25;100.00;69649.88;5087487;28;20047;-55
2024/04/04 08:39:43;;;;;;;7.03;2.00;;;;;;;11.23;100.00;69644.91;5088794;28;20048;-54
2024/04/04 08:42:10;;;;;;;8.10;1.90;;;;;;;11.25;100.00;69649.31;5091482;28;20514;-55
2024/04/04 08:44:36;;;;;;;6.55;1.95;;;;;;;11.30;100.00;69653.13;5091407;28;20178;-54
2024/04/04 08:47:06;;;;;;;6.38;2.00;;;;;;;11.30;100.00;69653.13;5078372;28;20039;-55
2024/04/04 08:49:37;;;;;;;;;;;;;;;11.30;100.00;69655.72;5089752;28;20479;-55
2024/04/04 08:52:06;;;;;;;8.75;2.30;;;;;;;11.31;100.00;69653.69;5088047;28;19920;-55
2024/04/04 08:54:33;;;;;;;5.50;1.90;;;;;;;11.28;100.00;69650.75;5091519;28;20062;-54
2024/04/04 08:57:02;;;;;;;6.53;1.92;;;;;;;11.32;100.00;69647.03;5091332;28;20123;-54
2024/04/04 08:59:28;;;;;;;5.75;2.05;;;;;;;11.38;100.00;69661.28;5091587;28;20056;-54
2024/04/04 09:01:55;;;;;;;8.10;2.33;;;;;;;11.35;100.00;69660.97;5090044;28;20410;-54
2024/04/04 09:04:25;;;;;;;6.95;1.83;;;;;;;11.38;100.00;69666.50;5072396;28;20095;-54
2024/04/04 09:06:52;;;;;;;5.53;2.03;;;;;;;11.39;100.00;69659.84;5090769;28;20048;-55
2024/04/04 09:09:20;;;;;;;5.28;2.15;;;;;;;11.40;100.00;69663.59;5074332;28;20072;-55
2024/04/04 09:11:49;;;;;;;6.82;1.70;;;;;;;11.43;100.00;69669.75;5091211;28;20051;-55
2024/04/04 09:14:16;;;;;;;8.30;2.30;;;;;;;11.45;100.00;69672.06;5091368;28;20061;-55
2024/04/04 09:16:44;;;;;;;7.13;2.63;;;;;;;11.47;100.00;69666.56;5090987;28;20042;-54
2024/04/04 09:19:11;;;;;;;7.88;2.30;;;;;;;11.47;100.00;69672.38;5091318;28;20040;-54
2024/04/04 09:21:39;;;;;;;8.18;2.40;;;;;;;11.51;100.00;69681.69;5091828;28;20499;-55
2024/04/04 09:24:08;;;;;;;7.40;2.63;;;;;;;11.53;100.00;69676.19;5090799;28;20083;-55
2024/04/04 09:26:37;;;;;;;9.73;2.78;;;;;;;11.57;100.00;69685.50;5088571;28;20160;-54
2024/04/04 09:29:05;;;;;;;5.90;2.33;;;;;;;11.60;100.00;69686.97;5087607;28;20441;-54
2024/04/04 09:31:35;;;;;;;5.97;2.17;;;;;;;11.65;100.00;69692.81;5088567;28;20040;-53
2024/04/04 09:34:01;;;;;;;6.85;2.38;;;;;;;11.69;100.00;69693.72;5090325;28;20047;-54
2024/04/04 09:36:30;;;;;;;6.15;2.60;;;;;;;11.74;100.00;69702.75;5087850;28;20047;-55
2024/04/04 09:38:58;;;;;;;7.85;2.75;;;;;;;11.77;100.00;69708.28;5088958;28;20514;-55
2024/04/04 09:41:25;;;;;;;6.82;2.70;;;;;;;11.78;100.00;69704.22;5090370;28;20048;-54
2024/04/04 09:43:56;;;;;;;7.20;2.60;;;;;;;11.83;100.00;69715.28;5088140;28;20047;-55
2024/04/04 09:46:25;;;;;;;5.97;2.63;;;;;;;11.92;100.00;69725.81;5074099;28;20058;-55
2024/04/04 09:48:52;;;;;;;6.32;2.47;;;;;;;11.92;100.00;69717.38;5091209;28;20047;-54
2024/04/04 09:51:21;;;;;;;7.00;2.80;;;;;;;11.93;100.00;69721.75;5079853;28;20028;-54
2024/04/04 09:53:48;;;;;;;5.80;2.53;;;;;;;11.96;100.00;69727.31;5090218;28;20043;-53
2024/04/04 09:56:17;;;;;;;4.95;2.45;;;;;;;11.90;100.00;69715.63;5088739;28;20047;-55
2024/04/04 09:58:43;;;;;;;6.68;2.47;;;;;;;11.92;100.00;69717.97;5087166;28;20115;-55
2024/04/04 10:01:19;;;;;;;5.80;2.55;;;;;;;11.96;100.00;69722.06;5072357;28;20060;-55
2024/04/04 10:03:57;;;;;;;8.75;3.22;;;;;;;11.98;100.00;69730.22;5088835;28;20712;-54
2024/04/04 10:06:35;;;;;;;7.63;2.50;;;;;;;12.02;100.00;69729.06;5089071;28;20094;-55
2024/04/04 10:09:14;;;;;;;6.50;2.30;;;;;;;12.05;100.00;69732.00;5090061;28;20080;-54
2024/04/04 10:11:41;;;;;;;5.13;2.25;;;;;;;12.03;100.00;69730.25;5070385;28;20502;-55
2024/04/04 10:14:12;;;;;;;8.00;2.15;;;;;;;12.07;100.00;69734.91;5087240;28;20470;-55
2024/04/04 10:16:45;;;;;;;7.22;2.50;;;;;;;12.09;100.00;69741.91;5067398;28;20059;-54
2024/04/04 10:19:12;;;;;;;6.90;1.77;;;;;;;12.02;100.00;69734.31;5086583;28;20078;-54
2024/04/04 10:21:40;;;;;;;5.07;1.90;;;;;;;11.96;100.00;69724.69;5097609;28;20032;-53
2024/04/04 10:24:07;;;;;;;3.47;1.80;;;;;;;11.94;100.00;69727.56;5090010;28;20050;-48
2024/04/04 10:26:34;;;;;;;4.63;1.38;;;;;;;11.85;100.00;69715.00;5090052;28;20043;-55
2024/04/04 10:29:02;;;;;;;5.05;1.42;;;;;;;11.89;100.00;69719.69;5090007;28;20052;-55
2024/04/04 10:31:29;;;;;;;2.58;1.33;;;;;;;11.96;100.00;69722.06;5090041;28;20066;-54
2024/04/04 10:34:04;;;;;;;4.43;1.52;;;;;;;12.22;100.00;69757.09;5071251;28;20048;-55
2024/04/04 10:36:42;;;;;;;6.40;1.80;;;;;;;12.43;100.00;69777.84;5086455;28;20051;-54
2024/04/04 10:39:12;;;;;;;5.00;1.75;;;;;;;12.61;100.00;69798.31;5085980;28;20101;-55
2024/04/04 10:41:41;;;;;;;5.45;1.73;;;;;;;12.79;100.00;69818.78;5088519;28;20725;-47
2024/04/04 10:44:10;;;;;;;5.40;1.80;;;;;;;12.95;100.00;69842.72;5087733;28;20047;-47
2024/04/04 10:46:44;;;;;;;5.43;2.47;;;;;;;13.05;100.00;69847.97;5086306;28;20051;-48
2024/04/04 10:49:13;;;;;;;5.65;1.90;;;;;;;13.15;100.00;69862.88;5089223;28;20047;-47
2024/04/04 10:51:45;;;;;;;6.70;1.90;;;;;;;13.28;100.00;69877.50;5090310;28;20036;-47
2024/04/04 10:54:11;;;;;;;3.90;1.70;;;;;;;13.32;100.00;69879.56;5090394;28;20086;-47
2024/04/04 10:56:38;;;;;;;4.07;1.77;;;;;;;13.45;100.00;69893.63;5088751;28;20040;-47
2024/04/04 10:59:04;;;;;;;7.75;1.77;;;;;;;13.56;100.00;69906.50;5086908;28;20479;-46
2024/04/04 11:01:33;;;;;;;4.20;1.30;;;;;;;13.73;100.00;69925.19;5087267;28;20054;-49
2024/04/04 11:04:00;;;;;;;4.22;1.50;;;;;;;14.07;100.00;69963.81;5089458;28;20403;-47
2024/04/04 11:06:29;;;;;;;5.32;1.25;;;;;;;14.27;100.00;69987.22;5090244;28;20525;-48
2024/04/04 11:09:01;;;;;;;2.92;1.20;;;;;;;14.48;100.00;70013.25;5072733;28;20086;-47
2024/04/04 11:11:28;;;;;;;6.90;1.20;;;;;;;14.51;100.00;70011.53;5060649;28;20503;-47
2024/04/04 11:13:55;;;;;;;4.72;1.30;;;;;;;14.73;100.00;70039.34;5089318;28;20109;-48
2024/04/04 11:16:22;;;;;;;4.70;1.30;;;;;;;14.96;100.00;70068.31;5081855;28;20158;-50
2024/04/04 11:18:48;;;;;;;4.47;1.20;;;;;;;15.13;100.00;70084.44;5100125;28;20055;-47
2024/04/04 11:21:16;;;;;;;3.38;1.00;;;;;;;15.09;100.00;70087.63;5084721;28;20036;-48
2024/04/04 11:23:43;;;;;;;4.55;1.23;;;;;;;15.19;100.00;70088.84;5065540;28;20410;-47
2024/04/04 11:26:10;;;;;;;6.03;0.90;;;;;;;15.38;100.00;70113.13;5087117;28;20040;-50
2024/04/04 11:28:36;;;;;;;8.82;1.50;;;;;;;15.58;100.00;70135.38;5088945;28;20055;-50